PWSweather.com
Personal Weather Stations
Station Observations
COONRAPIDS
Minneapolis, MN 55433

Minneapolis, MN 55433

Lat: 45.187721, Lon: -93.36828

Elevation: 898

Station Type: Davis Vantage Pro 2

Latest ConditionsUpdated 7:00:00 AM CDT Friday, Oct 31, 2014
Currently Today's Max Today's Min Today's Average
Temperature 26.0°F-3.3°C 31.7°F-0.2°C 26.0°F-3.3°C 28.8°F-1.8°C
Dew Point 16.5°F-8.6°C 16.8°F-8.4°C 12.8°F-10.7°C 15.7°F-9.1°C
Winds 0.5 mph N0.8 kmh N 4.2 mph N6.8 kmh N - 1.5 mph 2.4 kmh
Wind Gusts 3.0 mph4.8 kmh 10.0 mph16.1 kmh - -
Humidity 67% 67% 45% 58%
Pressure 30.51 in1033.2 mb 30.51 in1033.2 mb 30.38 in1028.8 mb -
Hour Temp Dew Point Humidity Winds Wind Gusts Pressure Precip Precip Rate Daily Precip Total
07:00 AM 26.0°F-3.3°C 16.5°F-8.6°C 67% 0.5 mph N0.8 kmh N 3.0 mph4.8 kmh 30.51 in1033.2 mb 0.00 in0.0 mm 0.00 in/hr0.0 mm/hr 0.00 in0.0 mm
06:50 AM 26.0°F-3.3°C 16.5°F-8.6°C 67% 1.0 mph N1.6 kmh N 2.0 mph3.2 kmh 30.51 in1033.2 mb 0.00 in0.0 mm 0.00 in/hr0.0 mm/hr 0.00 in0.0 mm
06:40 AM 26.3°F-3.2°C 16.4°F-8.7°C 66% 0.2 mph N0.3 kmh N 3.0 mph4.8 kmh 30.51 in1033.2 mb 0.00 in0.0 mm 0.00 in/hr0.0 mm/hr 0.00 in0.0 mm
06:30 AM 26.6°F-3.0°C 16.4°F-8.7°C 65% 0.3 mph NNW0.5 kmh NNW -- 30.51 in1033.2 mb 0.00 in0.0 mm 0.00 in/hr0.0 mm/hr 0.00 in0.0 mm
06:20 AM 27.0°F-2.8°C 16.1°F-8.8°C 63% 0.9 mph NW1.4 kmh NW 4.0 mph6.4 kmh 30.51 in1033.2 mb 0.00 in0.0 mm 0.00 in/hr0.0 mm/hr 0.00 in0.0 mm
06:10 AM 27.6°F-2.4°C 16.3°F-8.7°C 62% 0.9 mph NW1.4 kmh NW 4.0 mph6.4 kmh 30.51 in1033.2 mb 0.00 in0.0 mm 0.00 in/hr0.0 mm/hr 0.00 in0.0 mm
06:00 AM 27.6°F-2.4°C 15.9°F-8.9°C 61% 0.6 mph NNW1.0 kmh NNW 5.0 mph8.0 kmh 30.51 in1033.2 mb 0.00 in0.0 mm 0.00 in/hr0.0 mm/hr 0.00 in0.0 mm
05:50 AM 27.8°F-2.3°C 16.0°F-8.9°C 61% 2.8 mph N4.5 kmh N 4.0 mph6.4 kmh 30.50 in1032.8 mb 0.00 in0.0 mm 0.00 in/hr0.0 mm/hr 0.00 in0.0 mm
05:40 AM 27.8°F-2.3°C 15.7°F-9.1°C 60% 3.6 mph N5.8 kmh N 6.0 mph9.7 kmh 30.50 in1032.8 mb 0.00 in0.0 mm 0.00 in/hr0.0 mm/hr 0.00 in0.0 mm
05:30 AM 28.0°F-2.2°C 15.9°F-8.9°C 60% 1.1 mph NNE1.8 kmh NNE 7.0 mph11.3 kmh 30.50 in1032.8 mb 0.00 in0.0 mm 0.00 in/hr0.0 mm/hr 0.00 in0.0 mm
05:20 AM 28.1°F-2.2°C 16.0°F-8.9°C 60% 1.4 mph NNE2.3 kmh NNE 3.0 mph4.8 kmh 30.50 in1032.8 mb 0.00 in0.0 mm 0.00 in/hr0.0 mm/hr 0.00 in0.0 mm
05:10 AM 27.9°F-2.3°C 16.5°F-8.6°C 62% 3.5 mph N5.6 kmh N 6.0 mph9.7 kmh 30.50 in1032.8 mb 0.00 in0.0 mm 0.00 in/hr0.0 mm/hr 0.00 in0.0 mm
05:00 AM 27.6°F-2.4°C 16.6°F-8.6°C 63% 0.3 mph N0.5 kmh N 4.0 mph6.4 kmh 30.49 in1032.5 mb 0.00 in0.0 mm 0.00 in/hr0.0 mm/hr 0.00 in0.0 mm
04:50 AM 27.6°F-2.4°C 16.6°F-8.6°C 63% 0.7 mph N1.1 kmh N 3.0 mph4.8 kmh 30.48 in1032.2 mb 0.00 in0.0 mm 0.00 in/hr0.0 mm/hr 0.00 in0.0 mm
04:40 AM 27.7°F-2.4°C 16.8°F-8.4°C 63% Calm Calm 1.0 mph1.6 kmh 30.48 in1032.2 mb 0.00 in0.0 mm 0.00 in/hr0.0 mm/hr 0.00 in0.0 mm
04:30 AM 27.9°F-2.3°C 16.6°F-8.6°C 62% 0.4 mph N0.6 kmh N 1.0 mph1.6 kmh 30.47 in1031.8 mb 0.00 in0.0 mm 0.00 in/hr0.0 mm/hr 0.00 in0.0 mm
04:20 AM 28.0°F-2.2°C 16.7°F-8.5°C 62% 0.8 mph N1.3 kmh N 2.0 mph3.2 kmh 30.46 in1031.5 mb 0.00 in0.0 mm 0.00 in/hr0.0 mm/hr 0.00 in0.0 mm
04:10 AM 28.4°F-2.0°C 16.6°F-8.6°C 61% 0.5 mph N0.8 kmh N 3.0 mph4.8 kmh 30.46 in1031.5 mb 0.00 in0.0 mm 0.00 in/hr0.0 mm/hr 0.00 in0.0 mm
04:00 AM 28.5°F-1.9°C 16.7°F-8.5°C 61% 0.5 mph NNE0.8 kmh NNE 5.0 mph8.0 kmh 30.46 in1031.5 mb 0.00 in0.0 mm 0.00 in/hr0.0 mm/hr 0.00 in0.0 mm
03:50 AM 28.4°F-2.0°C 16.7°F-8.5°C 61% 0.6 mph N1.0 kmh N 3.0 mph4.8 kmh 30.46 in1031.5 mb 0.00 in0.0 mm 0.00 in/hr0.0 mm/hr 0.00 in0.0 mm
03:40 AM 28.3°F-2.1°C 16.2°F-8.8°C 60% 1.2 mph N1.9 kmh N 6.0 mph9.7 kmh 30.47 in1031.8 mb 0.00 in0.0 mm 0.00 in/hr0.0 mm/hr 0.00 in0.0 mm
03:30 AM 28.4°F-2.0°C 16.3°F-8.7°C 60% 1.2 mph N1.9 kmh N 3.0 mph4.8 kmh 30.46 in1031.5 mb 0.00 in0.0 mm 0.00 in/hr0.0 mm/hr 0.00 in0.0 mm
03:20 AM 28.7°F-1.8°C 16.2°F-8.8°C 59% 0.3 mph NNW0.5 kmh NNW 4.0 mph6.4 kmh 30.46 in1031.5 mb 0.00 in0.0 mm 0.00 in/hr0.0 mm/hr 0.00 in0.0 mm
03:10 AM 28.8°F-1.8°C 16.3°F-8.7°C 59% 2.7 mph N4.3 kmh N 7.0 mph11.3 kmh 30.45 in1031.2 mb 0.00 in0.0 mm 0.00 in/hr0.0 mm/hr 0.00 in0.0 mm
03:00 AM 28.9°F-1.7°C 16.4°F-8.7°C 59% 1.8 mph NNE2.9 kmh NNE 8.0 mph12.9 kmh 30.45 in1031.2 mb 0.00 in0.0 mm 0.00 in/hr0.0 mm/hr 0.00 in0.0 mm
02:50 AM 29.1°F-1.6°C 16.2°F-8.8°C 58% 1.8 mph NNE2.9 kmh NNE 4.0 mph6.4 kmh 30.45 in1031.2 mb 0.00 in0.0 mm 0.00 in/hr0.0 mm/hr 0.00 in0.0 mm
02:40 AM 29.2°F-1.6°C 16.2°F-8.8°C 58% 1.6 mph N2.6 kmh N 5.0 mph8.0 kmh 30.44 in1030.8 mb 0.00 in0.0 mm 0.00 in/hr0.0 mm/hr 0.00 in0.0 mm
02:30 AM 29.3°F-1.5°C 16.3°F-8.7°C 58% 1.6 mph N2.6 kmh N 4.0 mph6.4 kmh 30.43 in1030.5 mb 0.00 in0.0 mm 0.00 in/hr0.0 mm/hr 0.00 in0.0 mm
02:20 AM 29.5°F-1.4°C 16.1°F-8.8°C 57% 2.1 mph N3.4 kmh N 6.0 mph9.7 kmh 30.43 in1030.5 mb 0.00 in0.0 mm 0.00 in/hr0.0 mm/hr 0.00 in0.0 mm
02:10 AM 29.7°F-1.3°C 15.9°F-8.9°C 56% 2.2 mph N3.5 kmh N 4.0 mph6.4 kmh 30.43 in1030.5 mb 0.00 in0.0 mm 0.00 in/hr0.0 mm/hr 0.00 in0.0 mm
02:00 AM 29.9°F-1.2°C 15.6°F-9.1°C 55% 2.6 mph N4.2 kmh N 6.0 mph9.7 kmh 30.43 in1030.5 mb 0.00 in0.0 mm 0.00 in/hr0.0 mm/hr 0.00 in0.0 mm
01:50 AM 29.9°F-1.2°C 15.3°F-9.3°C 54% 0.8 mph N1.3 kmh N 5.0 mph8.0 kmh 30.42 in1030.1 mb 0.00 in0.0 mm 0.00 in/hr0.0 mm/hr 0.00 in0.0 mm
01:40 AM 30.1°F-1.1°C 15.0°F-9.4°C 53% 1.4 mph N2.3 kmh N 1.0 mph1.6 kmh 30.42 in1030.1 mb 0.00 in0.0 mm 0.00 in/hr0.0 mm/hr 0.00 in0.0 mm
01:30 AM 30.1°F-1.1°C 15.0°F-9.4°C 53% Calm Calm 1.0 mph1.6 kmh 30.41 in1029.8 mb 0.00 in0.0 mm 0.00 in/hr0.0 mm/hr 0.00 in0.0 mm
01:20 AM 30.2°F-1.0°C 14.7°F-9.6°C 52% 2.0 mph N3.2 kmh N 2.0 mph3.2 kmh 30.41 in1029.8 mb 0.00 in0.0 mm 0.00 in/hr0.0 mm/hr 0.00 in0.0 mm
01:10 AM 30.5°F-0.8°C 14.5°F-9.7°C 51% 0.7 mph N1.1 kmh N 2.0 mph3.2 kmh 30.41 in1029.8 mb 0.00 in0.0 mm 0.00 in/hr0.0 mm/hr 0.00 in0.0 mm
01:00 AM 30.5°F-0.8°C 14.0°F-10.0°C 50% 2.9 mph N4.7 kmh N 5.0 mph8.0 kmh 30.39 in1029.1 mb 0.00 in0.0 mm 0.00 in/hr0.0 mm/hr 0.00 in0.0 mm
12:50 AM 30.6°F-0.8°C 13.7°F-10.2°C 49% 4.2 mph N6.8 kmh N 10.0 mph16.1 kmh 30.40 in1029.5 mb 0.00 in0.0 mm 0.00 in/hr0.0 mm/hr 0.00 in0.0 mm
12:40 AM 30.6°F-0.8°C 13.7°F-10.2°C 49% 3.9 mph N6.3 kmh N 10.0 mph16.1 kmh 30.39 in1029.1 mb 0.00 in0.0 mm 0.00 in/hr0.0 mm/hr 0.00 in0.0 mm
12:30 AM 30.7°F-0.7°C 13.3°F-10.4°C 48% 2.8 mph N4.5 kmh N 5.0 mph8.0 kmh 30.39 in1029.1 mb 0.00 in0.0 mm 0.00 in/hr0.0 mm/hr 0.00 in0.0 mm
12:20 AM 30.9°F-0.6°C 13.0°F-10.6°C 47% 1.4 mph N2.3 kmh N 5.0 mph8.0 kmh 30.39 in1029.1 mb 0.00 in0.0 mm 0.00 in/hr0.0 mm/hr 0.00 in0.0 mm
12:10 AM 31.4°F-0.3°C 13.0°F-10.6°C 46% 4.2 mph N6.8 kmh N 9.0 mph14.5 kmh 30.38 in1028.8 mb 0.00 in0.0 mm 0.00 in/hr0.0 mm/hr 0.00 in0.0 mm
12:00 AM 31.7°F-0.2°C 12.8°F-10.7°C 45% 1.8 mph NNW2.9 kmh NNW 5.0 mph8.0 kmh 30.38 in1028.8 mb 0.00 in0.0 mm 0.00 in/hr0.0 mm/hr 0.00 in0.0 mm